Myrtle Beach, South Carolina
Current Conditions -  °F | °C
As of 5:55 AM on Saturday 20 Dec 2014 (Local Time) from KMYR Reporting Station
Light Rain Light Rain  
Wind Chill: 45°   Ceiling: 8000
Heat Index: 48°   Visibility: 8mi
Dew Point: 46°   Wind: 8mph
Humidity: 93%   Direction: 60°ENE
Pressure: 30.2"   Gusts: NA
Location:  33.69°N, 78.88°W
Report Text: KMYR 201055Z 06007KT 8SM -RA OVC080 09/08 A3020
Loading
Personal Weather Stations






























Interactive Weather Map New forecast layout! Learn more

10-Day Weather Forecast

Advertisements
Track Severe Weather on mobile